In Rescue
 
Open Full Screen Window  High Contrast Mode
September 18, 2020 10:06 PM EDT
Weather Information
Wind Direction
  ---
Wind Speed
  00 kt (0 mph)
Wind Gust
  00 kt (0 mph)
Altimeter
30.37 in
Visibility
10 SM
Temperature
05° C
41° F
Dewpoint
04° C
39° F
Humidity
93%
1hr Rain Fall
00.00 in.
24hr Rain Fall
00.00 in.
Sky Condition
Clear
VFR

METAR KMOP 190206Z AUTO 00000KT 10SM CLR 05/04 A3037 RMK AO2 T00510039

FAA Disclaimer: The data displayed is for advisory purposes only and is not to be used for flight planning or operations.